sensor_id;sensor_type;location;lat;lon;timestamp;P1;durP1;ratioP1;P2;durP2;ratioP2
47804;SDS011;33568;45.286;9.900;2023-02-01T00:00:24;71.00;;;45.53;;
47804;SDS011;33568;45.286;9.900;2023-02-01T00:02:51;74.63;;;47.20;;
47804;SDS011;33568;45.286;9.900;2023-02-01T00:05:17;69.30;;;45.38;;
47804;SDS011;33568;45.286;9.900;2023-02-01T00:07:44;71.55;;;46.15;;
47804;SDS011;33568;45.286;9.900;2023-02-01T00:10:13;74.43;;;47.45;;
47804;SDS011;33568;45.286;9.900;2023-02-01T00:15:06;72.20;;;43.65;;
47804;SDS011;33568;45.286;9.900;2023-02-01T00:17:33;70.32;;;44.05;;
47804;SDS011;33568;45.286;9.900;2023-02-01T00:20:00;70.25;;;45.45;;
47804;SDS011;33568;45.286;9.900;2023-02-01T00:22:27;79.07;;;47.90;;
47804;SDS011;33568;45.286;9.900;2023-02-01T00:24:54;69.10;;;47.88;;
47804;SDS011;33568;45.286;9.900;2023-02-01T00:27:20;77.05;;;48.90;;
47804;SDS011;33568;45.286;9.900;2023-02-01T00:29:47;75.07;;;48.22;;
47804;SDS011;33568;45.286;9.900;2023-02-01T00:34:39;71.80;;;45.75;;
47804;SDS011;33568;45.286;9.900;2023-02-01T00:37:06;68.03;;;43.08;;
47804;SDS011;33568;45.286;9.900;2023-02-01T00:39:32;63.75;;;38.88;;
47804;SDS011;33568;45.286;9.900;2023-02-01T00:41:59;57.60;;;38.08;;
47804;SDS011;33568;45.286;9.900;2023-02-01T00:44:27;56.78;;;37.55;;
47804;SDS011;33568;45.286;9.900;2023-02-01T00:49:20;59.78;;;36.83;;
47804;SDS011;33568;45.286;9.900;2023-02-01T00:51:46;61.88;;;38.60;;
47804;SDS011;33568;45.286;9.900;2023-02-01T00:54:13;61.92;;;39.30;;
47804;SDS011;33568;45.286;9.900;2023-02-01T00:56:39;64.05;;;40.50;;
47804;SDS011;33568;45.286;9.900;2023-02-01T00:59:06;66.40;;;41.28;;
47804;SDS011;33568;45.286;9.900;2023-02-01T01:01:34;62.97;;;40.50;;
47804;SDS011;33568;45.286;9.900;2023-02-01T01:06:28;67.88;;;40.08;;
47804;SDS011;33568;45.286;9.900;2023-02-01T01:08:57;64.15;;;41.92;;
47804;SDS011;33568;45.286;9.900;2023-02-01T01:11:25;65.63;;;43.83;;
47804;SDS011;33568;45.286;9.900;2023-02-01T01:13:54;68.80;;;42.05;;
47804;SDS011;33568;45.286;9.900;2023-02-01T01:16:22;69.53;;;42.85;;
47804;SDS011;33568;45.286;9.900;2023-02-01T01:18:51;71.53;;;44.50;;
47804;SDS011;33568;45.286;9.900;2023-02-01T01:21:17;65.47;;;42.50;;
47804;SDS011;33568;45.286;9.900;2023-02-01T01:23:44;71.15;;;47.97;;
47804;SDS011;33568;45.286;9.900;2023-02-01T01:26:13;78.43;;;47.05;;
47804;SDS011;33568;45.286;9.900;2023-02-01T01:28:41;76.38;;;49.55;;
47804;SDS011;33568;45.286;9.900;2023-02-01T01:31:12;83.78;;;49.42;;
47804;SDS011;33568;45.286;9.900;2023-02-01T01:33:40;74.93;;;46.47;;
47804;SDS011;33568;45.286;9.900;2023-02-01T01:36:08;74.85;;;47.53;;
47804;SDS011;33568;45.286;9.900;2023-02-01T01:38:37;74.05;;;45.97;;
47804;SDS011;33568;45.286;9.900;2023-02-01T01:41:06;77.00;;;45.95;;
47804;SDS011;33568;45.286;9.900;2023-02-01T01:43:45;75.30;;;46.58;;
47804;SDS011;33568;45.286;9.900;2023-02-01T01:46:37;66.28;;;43.58;;
47804;SDS011;33568;45.286;9.900;2023-02-01T01:49:21;66.40;;;44.53;;
47804;SDS011;33568;45.286;9.900;2023-02-01T01:51:55;72.25;;;44.63;;
47804;SDS011;33568;45.286;9.900;2023-02-01T01:56:52;71.78;;;44.70;;
47804;SDS011;33568;45.286;9.900;2023-02-01T01:59:21;65.40;;;43.30;;
47804;SDS011;33568;45.286;9.900;2023-02-01T02:01:50;64.68;;;43.60;;
47804;SDS011;33568;45.286;9.900;2023-02-01T02:04:18;73.95;;;45.83;;
47804;SDS011;33568;45.286;9.900;2023-02-01T02:06:47;72.07;;;44.35;;
47804;SDS011;33568;45.286;9.900;2023-02-01T02:09:16;75.75;;;45.03;;
47804;SDS011;33568;45.286;9.900;2023-02-01T02:14:09;74.50;;;44.88;;
47804;SDS011;33568;45.286;9.900;2023-02-01T02:36:01;90.10;;;51.55;;
47804;SDS011;33568;45.286;9.900;2023-02-01T02:53:03;79.22;;;51.10;;
47804;SDS011;33568;45.286;9.900;2023-02-01T02:56:12;85.60;;;52.08;;
47804;SDS011;33568;45.286;9.900;2023-02-01T02:58:59;86.20;;;51.57;;
47804;SDS011;33568;45.286;9.900;2023-02-01T03:01:45;86.25;;;50.22;;
47804;SDS011;33568;45.286;9.900;2023-02-01T03:04:30;77.57;;;49.22;;
47804;SDS011;33568;45.286;9.900;2023-02-01T03:06:57;88.45;;;52.55;;
47804;SDS011;33568;45.286;9.900;2023-02-01T03:11:59;71.97;;;46.05;;
47804;SDS011;33568;45.286;9.900;2023-02-01T03:14:52;76.60;;;47.70;;
47804;SDS011;33568;45.286;9.900;2023-02-01T03:17:27;70.60;;;44.85;;
47804;SDS011;33568;45.286;9.900;2023-02-01T03:19:59;66.60;;;42.80;;
47804;SDS011;33568;45.286;9.900;2023-02-01T03:22:29;70.43;;;44.22;;
47804;SDS011;33568;45.286;9.900;2023-02-01T03:25:03;72.60;;;44.78;;
47804;SDS011;33568;45.286;9.900;2023-02-01T03:27:35;69.90;;;45.25;;
47804;SDS011;33568;45.286;9.900;2023-02-01T03:32:54;72.07;;;44.97;;
47804;SDS011;33568;45.286;9.900;2023-02-01T03:36:17;71.03;;;44.28;;
47804;SDS011;33568;45.286;9.900;2023-02-01T03:41:06;66.88;;;44.25;;
47804;SDS011;33568;45.286;9.900;2023-02-01T03:43:48;60.20;;;42.90;;
47804;SDS011;33568;45.286;9.900;2023-02-01T03:46:20;67.28;;;40.97;;
47804;SDS011;33568;45.286;9.900;2023-02-01T03:48:52;63.95;;;40.95;;
47804;SDS011;33568;45.286;9.900;2023-02-01T03:51:20;65.22;;;42.00;;
47804;SDS011;33568;45.286;9.900;2023-02-01T03:53:48;67.53;;;43.67;;
47804;SDS011;33568;45.286;9.900;2023-02-01T03:56:17;74.85;;;45.13;;
47804;SDS011;33568;45.286;9.900;2023-02-01T03:58:47;77.93;;;46.97;;
47804;SDS011;33568;45.286;9.900;2023-02-01T04:01:27;71.32;;;45.10;;
47804;SDS011;33568;45.286;9.900;2023-02-01T04:03:55;75.22;;;45.88;;
47804;SDS011;33568;45.286;9.900;2023-02-01T04:06:23;72.65;;;46.78;;
47804;SDS011;33568;45.286;9.900;2023-02-01T04:08:51;71.88;;;46.13;;
47804;SDS011;33568;45.286;9.900;2023-02-01T04:11:17;74.30;;;46.63;;
47804;SDS011;33568;45.286;9.900;2023-02-01T04:13:44;66.47;;;44.28;;
47804;SDS011;33568;45.286;9.900;2023-02-01T04:16:11;66.57;;;41.75;;
47804;SDS011;33568;45.286;9.900;2023-02-01T04:18:37;60.33;;;41.95;;
47804;SDS011;33568;45.286;9.900;2023-02-01T04:21:04;57.80;;;37.95;;
47804;SDS011;33568;45.286;9.900;2023-02-01T04:26:01;61.13;;;36.65;;
47804;SDS011;33568;45.286;9.900;2023-02-01T04:28:28;57.92;;;36.75;;
47804;SDS011;33568;45.286;9.900;2023-02-01T04:30:55;58.17;;;37.50;;
47804;SDS011;33568;45.286;9.900;2023-02-01T04:33:22;61.90;;;39.78;;
47804;SDS011;33568;45.286;9.900;2023-02-01T04:35:48;62.53;;;38.70;;
47804;SDS011;33568;45.286;9.900;2023-02-01T04:38:15;59.78;;;38.17;;
47804;SDS011;33568;45.286;9.900;2023-02-01T04:43:07;54.45;;;35.80;;
47804;SDS011;33568;45.286;9.900;2023-02-01T04:48:00;62.75;;;37.15;;
47804;SDS011;33568;45.286;9.900;2023-02-01T04:50:26;56.65;;;36.30;;
47804;SDS011;33568;45.286;9.900;2023-02-01T04:55:19;53.03;;;35.55;;
47804;SDS011;33568;45.286;9.900;2023-02-01T04:57:45;62.13;;;40.58;;
47804;SDS011;33568;45.286;9.900;2023-02-01T05:00:12;59.10;;;38.17;;
47804;SDS011;33568;45.286;9.900;2023-02-01T05:02:39;57.17;;;38.22;;
47804;SDS011;33568;45.286;9.900;2023-02-01T05:05:05;56.67;;;38.28;;
47804;SDS011;33568;45.286;9.900;2023-02-01T05:07:32;57.33;;;37.20;;
47804;SDS011;33568;45.286;9.900;2023-02-01T05:09:58;58.63;;;38.00;;
47804;SDS011;33568;45.286;9.900;2023-02-01T05:12:25;59.83;;;37.63;;
47804;SDS011;33568;45.286;9.900;2023-02-01T05:15:10;55.03;;;40.22;;
47804;SDS011;33568;45.286;9.900;2023-02-01T05:17:36;56.97;;;37.88;;
47804;SDS011;33568;45.286;9.900;2023-02-01T05:20:02;59.72;;;36.65;;
47804;SDS011;33568;45.286;9.900;2023-02-01T05:22:29;58.03;;;37.83;;
47804;SDS011;33568;45.286;9.900;2023-02-01T05:24:55;59.83;;;36.33;;
47804;SDS011;33568;45.286;9.900;2023-02-01T05:27:22;53.50;;;35.72;;
47804;SDS011;33568;45.286;9.900;2023-02-01T05:29:48;59.38;;;39.75;;
47804;SDS011;33568;45.286;9.900;2023-02-01T05:32:15;53.97;;;37.42;;
47804;SDS011;33568;45.286;9.900;2023-02-01T05:34:41;56.38;;;38.95;;
47804;SDS011;33568;45.286;9.900;2023-02-01T05:39:34;63.58;;;41.75;;
47804;SDS011;33568;45.286;9.900;2023-02-01T05:42:00;63.90;;;42.83;;
47804;SDS011;33568;45.286;9.900;2023-02-01T05:44:26;63.45;;;42.10;;
47804;SDS011;33568;45.286;9.900;2023-02-01T05:46:53;62.53;;;40.20;;
47804;SDS011;33568;45.286;9.900;2023-02-01T05:49:19;64.80;;;41.35;;
47804;SDS011;33568;45.286;9.900;2023-02-01T05:51:46;59.20;;;38.60;;
47804;SDS011;33568;45.286;9.900;2023-02-01T05:56:38;64.28;;;37.90;;
47804;SDS011;33568;45.286;9.900;2023-02-01T05:59:06;67.22;;;43.33;;
47804;SDS011;33568;45.286;9.900;2023-02-01T06:01:33;67.05;;;41.70;;
47804;SDS011;33568;45.286;9.900;2023-02-01T06:03:59;69.30;;;41.90;;
47804;SDS011;33568;45.286;9.900;2023-02-01T06:06:26;69.85;;;44.72;;
47804;SDS011;33568;45.286;9.900;2023-02-01T06:11:18;55.42;;;37.33;;
47804;SDS011;33568;45.286;9.900;2023-02-01T06:13:45;59.85;;;39.17;;
47804;SDS011;33568;45.286;9.900;2023-02-01T06:16:11;63.50;;;42.15;;
47804;SDS011;33568;45.286;9.900;2023-02-01T06:18:41;66.72;;;43.28;;
47804;SDS011;33568;45.286;9.900;2023-02-01T06:21:07;68.05;;;44.38;;
47804;SDS011;33568;45.286;9.900;2023-02-01T06:23:34;69.10;;;43.15;;
47804;SDS011;33568;45.286;9.900;2023-02-01T06:28:31;68.88;;;42.80;;
47804;SDS011;33568;45.286;9.900;2023-02-01T06:31:02;67.55;;;41.88;;
47804;SDS011;33568;45.286;9.900;2023-02-01T06:33:32;65.97;;;42.13;;
47804;SDS011;33568;45.286;9.900;2023-02-01T06:36:00;65.78;;;41.83;;
47804;SDS011;33568;45.286;9.900;2023-02-01T06:38:29;66.25;;;40.22;;
47804;SDS011;33568;45.286;9.900;2023-02-01T06:40:57;65.75;;;43.85;;
47804;SDS011;33568;45.286;9.900;2023-02-01T06:43:25;67.63;;;43.38;;
47804;SDS011;33568;45.286;9.900;2023-02-01T06:45:52;68.93;;;46.45;;
47804;SDS011;33568;45.286;9.900;2023-02-01T06:48:19;79.00;;;52.53;;
47804;SDS011;33568;45.286;9.900;2023-02-01T06:50:45;70.50;;;48.83;;
47804;SDS011;33568;45.286;9.900;2023-02-01T06:53:12;77.30;;;49.42;;
47804;SDS011;33568;45.286;9.900;2023-02-01T06:55:38;81.25;;;48.92;;
47804;SDS011;33568;45.286;9.900;2023-02-01T06:58:05;74.57;;;47.65;;
47804;SDS011;33568;45.286;9.900;2023-02-01T07:00:31;100.57;;;54.08;;
47804;SDS011;33568;45.286;9.900;2023-02-01T07:05:25;88.60;;;55.15;;
47804;SDS011;33568;45.286;9.900;2023-02-01T07:07:51;91.35;;;52.42;;
47804;SDS011;33568;45.286;9.900;2023-02-01T07:10:18;93.53;;;54.42;;
47804;SDS011;33568;45.286;9.900;2023-02-01T07:12:44;88.50;;;56.28;;
47804;SDS011;33568;45.286;9.900;2023-02-01T07:15:11;94.32;;;55.05;;
47804;SDS011;33568;45.286;9.900;2023-02-01T07:17:37;104.35;;;62.28;;
47804;SDS011;33568;45.286;9.900;2023-02-01T07:20:03;109.28;;;64.55;;
47804;SDS011;33568;45.286;9.900;2023-02-01T07:22:30;106.32;;;63.95;;
47804;SDS011;33568;45.286;9.900;2023-02-01T07:24:57;92.07;;;58.80;;
47804;SDS011;33568;45.286;9.900;2023-02-01T07:27:23;100.22;;;60.65;;
47804;SDS011;33568;45.286;9.900;2023-02-01T07:29:51;96.53;;;59.20;;
47804;SDS011;33568;45.286;9.900;2023-02-01T07:32:18;93.22;;;58.65;;
47804;SDS011;33568;45.286;9.900;2023-02-01T07:34:44;97.72;;;58.72;;
47804;SDS011;33568;45.286;9.900;2023-02-01T07:39:37;88.07;;;52.15;;
47804;SDS011;33568;45.286;9.900;2023-02-01T07:42:04;98.57;;;57.67;;
47804;SDS011;33568;45.286;9.900;2023-02-01T07:44:31;88.97;;;57.22;;
47804;SDS011;33568;45.286;9.900;2023-02-01T07:46:57;93.47;;;57.47;;
47804;SDS011;33568;45.286;9.900;2023-02-01T07:49:23;102.07;;;60.17;;
47804;SDS011;33568;45.286;9.900;2023-02-01T07:51:50;104.70;;;65.47;;
47804;SDS011;33568;45.286;9.900;2023-02-01T07:54:16;102.93;;;63.92;;
47804;SDS011;33568;45.286;9.900;2023-02-01T07:59:09;103.32;;;62.50;;
47804;SDS011;33568;45.286;9.900;2023-02-01T08:01:39;106.20;;;63.50;;
47804;SDS011;33568;45.286;9.900;2023-02-01T08:04:05;106.55;;;64.55;;
47804;SDS011;33568;45.286;9.900;2023-02-01T08:09:00;108.50;;;70.35;;
47804;SDS011;33568;45.286;9.900;2023-02-01T08:11:26;121.10;;;71.45;;
47804;SDS011;33568;45.286;9.900;2023-02-01T08:13:53;102.70;;;68.00;;
47804;SDS011;33568;45.286;9.900;2023-02-01T08:16:20;111.70;;;66.00;;
47804;SDS011;33568;45.286;9.900;2023-02-01T08:18:48;111.10;;;70.82;;
47804;SDS011;33568;45.286;9.900;2023-02-01T08:23:42;118.35;;;71.60;;
47804;SDS011;33568;45.286;9.900;2023-02-01T08:26:10;107.65;;;69.10;;
47804;SDS011;33568;45.286;9.900;2023-02-01T08:28:40;113.10;;;70.35;;
47804;SDS011;33568;45.286;9.900;2023-02-01T08:31:09;108.43;;;71.25;;
47804;SDS011;33568;45.286;9.900;2023-02-01T08:33:40;106.00;;;67.55;;
47804;SDS011;33568;45.286;9.900;2023-02-01T08:36:10;99.80;;;67.95;;
47804;SDS011;33568;45.286;9.900;2023-02-01T08:38:37;100.20;;;64.63;;
47804;SDS011;33568;45.286;9.900;2023-02-01T08:41:09;105.13;;;66.40;;
47804;SDS011;33568;45.286;9.900;2023-02-01T08:43:37;104.50;;;64.97;;
47804;SDS011;33568;45.286;9.900;2023-02-01T08:46:04;97.90;;;64.55;;
47804;SDS011;33568;45.286;9.900;2023-02-01T08:48:32;96.10;;;64.28;;
47804;SDS011;33568;45.286;9.900;2023-02-01T08:51:02;105.70;;;67.90;;
47804;SDS011;33568;45.286;9.900;2023-02-01T08:53:30;102.35;;;67.05;;
47804;SDS011;33568;45.286;9.900;2023-02-01T08:55:56;102.00;;;66.72;;
47804;SDS011;33568;45.286;9.900;2023-02-01T08:58:23;98.25;;;68.70;;
47804;SDS011;33568;45.286;9.900;2023-02-01T09:00:49;111.40;;;71.82;;
47804;SDS011;33568;45.286;9.900;2023-02-01T09:03:16;105.40;;;71.25;;
47804;SDS011;33568;45.286;9.900;2023-02-01T09:05:43;101.50;;;64.32;;
47804;SDS011;33568;45.286;9.900;2023-02-01T09:08:11;94.05;;;58.63;;
47804;SDS011;33568;45.286;9.900;2023-02-01T09:10:41;91.00;;;55.28;;
47804;SDS011;33568;45.286;9.900;2023-02-01T09:13:08;82.00;;;53.78;;
47804;SDS011;33568;45.286;9.900;2023-02-01T09:15:35;76.40;;;49.20;;
47804;SDS011;33568;45.286;9.900;2023-02-01T09:18:02;71.07;;;51.58;;
47804;SDS011;33568;45.286;9.900;2023-02-01T09:22:55;90.20;;;57.70;;
47804;SDS011;33568;45.286;9.900;2023-02-01T09:27:48;68.82;;;47.17;;
47804;SDS011;33568;45.286;9.900;2023-02-01T09:30:14;75.85;;;52.03;;
47804;SDS011;33568;45.286;9.900;2023-02-01T09:35:07;77.32;;;49.22;;
47804;SDS011;33568;45.286;9.900;2023-02-01T09:40:00;82.63;;;49.97;;
47804;SDS011;33568;45.286;9.900;2023-02-01T09:47:53;68.97;;;43.38;;
47804;SDS011;33568;45.286;9.900;2023-02-01T09:50:33;56.97;;;39.53;;
47804;SDS011;33568;45.286;9.900;2023-02-01T09:53:11;62.05;;;38.92;;
47804;SDS011;33568;45.286;9.900;2023-02-01T09:55:43;51.65;;;36.33;;
47804;SDS011;33568;45.286;9.900;2023-02-01T09:58:17;47.15;;;34.47;;
47804;SDS011;33568;45.286;9.900;2023-02-01T10:00:57;49.67;;;36.38;;
47804;SDS011;33568;45.286;9.900;2023-02-01T10:03:27;47.45;;;36.50;;
47804;SDS011;33568;45.286;9.900;2023-02-01T10:26:09;43.90;;;32.63;;
47804;SDS011;33568;45.286;9.900;2023-02-01T10:28:54;40.35;;;33.03;;
47804;SDS011;33568;45.286;9.900;2023-02-01T10:31:26;44.00;;;31.45;;
47804;SDS011;33568;45.286;9.900;2023-02-01T10:33:57;41.38;;;33.05;;
47804;SDS011;33568;45.286;9.900;2023-02-01T10:36:31;41.83;;;30.92;;
47804;SDS011;33568;45.286;9.900;2023-02-01T10:39:06;41.15;;;29.92;;
47804;SDS011;33568;45.286;9.900;2023-02-01T10:41:38;35.28;;;30.30;;
47804;SDS011;33568;45.286;9.900;2023-02-01T10:44:09;44.28;;;30.38;;
47804;SDS011;33568;45.286;9.900;2023-02-01T10:46:41;35.78;;;28.17;;
47804;SDS011;33568;45.286;9.900;2023-02-01T10:49:11;36.63;;;30.98;;
47804;SDS011;33568;45.286;9.900;2023-02-01T10:54:37;36.22;;;29.52;;
47804;SDS011;33568;45.286;9.900;2023-02-01T10:57:08;37.53;;;31.10;;
47804;SDS011;33568;45.286;9.900;2023-02-01T10:59:36;37.03;;;27.98;;
47804;SDS011;33568;45.286;9.900;2023-02-01T11:02:15;32.70;;;26.70;;
47804;SDS011;33568;45.286;9.900;2023-02-01T11:04:42;30.15;;;25.55;;
47804;SDS011;33568;45.286;9.900;2023-02-01T11:07:19;31.88;;;24.60;;
47804;SDS011;33568;45.286;9.900;2023-02-01T11:09:51;39.83;;;25.20;;
47804;SDS011;33568;45.286;9.900;2023-02-01T11:12:34;35.25;;;23.95;;
47804;SDS011;33568;45.286;9.900;2023-02-01T11:15:12;31.20;;;22.83;;
47804;SDS011;33568;45.286;9.900;2023-02-01T11:17:44;29.23;;;23.60;;
47804;SDS011;33568;45.286;9.900;2023-02-01T11:20:14;27.02;;;21.38;;
47804;SDS011;33568;45.286;9.900;2023-02-01T11:22:46;27.20;;;22.60;;
47804;SDS011;33568;45.286;9.900;2023-02-01T11:25:22;29.58;;;21.67;;
47804;SDS011;33568;45.286;9.900;2023-02-01T11:27:50;25.33;;;21.55;;
47804;SDS011;33568;45.286;9.900;2023-02-01T11:33:00;31.13;;;23.17;;
47804;SDS011;33568;45.286;9.900;2023-02-01T11:35:29;31.40;;;21.75;;
47804;SDS011;33568;45.286;9.900;2023-02-01T11:37:59;30.15;;;21.90;;
47804;SDS011;33568;45.286;9.900;2023-02-01T11:40:37;27.45;;;22.60;;
47804;SDS011;33568;45.286;9.900;2023-02-01T11:45:53;25.05;;;21.73;;
47804;SDS011;33568;45.286;9.900;2023-02-01T11:48:42;28.00;;;21.67;;
47804;SDS011;33568;45.286;9.900;2023-02-01T11:51:25;28.20;;;22.20;;
47804;SDS011;33568;45.286;9.900;2023-02-01T11:54:19;33.80;;;21.80;;
47804;SDS011;33568;45.286;9.900;2023-02-01T12:05:27;28.58;;;21.83;;
47804;SDS011;33568;45.286;9.900;2023-02-01T12:27:11;27.05;;;19.58;;
47804;SDS011;33568;45.286;9.900;2023-02-01T12:36:03;32.78;;;22.77;;
47804;SDS011;33568;45.286;9.900;2023-02-01T12:38:44;29.73;;;21.20;;
47804;SDS011;33568;45.286;9.900;2023-02-01T12:44:17;27.10;;;20.33;;
47804;SDS011;33568;45.286;9.900;2023-02-01T12:47:18;24.13;;;19.95;;
47804;SDS011;33568;45.286;9.900;2023-02-01T13:01:02;29.30;;;20.23;;
47804;SDS011;33568;45.286;9.900;2023-02-01T13:04:11;31.48;;;20.65;;
47804;SDS011;33568;45.286;9.900;2023-02-01T13:06:50;33.22;;;21.55;;
47804;SDS011;33568;45.286;9.900;2023-02-01T13:09:24;30.48;;;22.42;;
47804;SDS011;33568;45.286;9.900;2023-02-01T13:12:22;35.85;;;22.42;;
47804;SDS011;33568;45.286;9.900;2023-02-01T13:14:58;40.25;;;24.60;;
47804;SDS011;33568;45.286;9.900;2023-02-01T13:17:31;38.90;;;28.97;;
47804;SDS011;33568;45.286;9.900;2023-02-01T13:20:02;49.45;;;26.05;;
47804;SDS011;33568;45.286;9.900;2023-02-01T13:22:39;37.92;;;23.10;;
47804;SDS011;33568;45.286;9.900;2023-02-01T13:27:59;29.90;;;21.73;;
47804;SDS011;33568;45.286;9.900;2023-02-01T13:30:34;32.10;;;21.83;;
47804;SDS011;33568;45.286;9.900;2023-02-01T13:36:04;42.22;;;26.83;;
47804;SDS011;33568;45.286;9.900;2023-02-01T13:44:28;33.05;;;21.80;;
47804;SDS011;33568;45.286;9.900;2023-02-01T13:47:08;33.05;;;22.27;;
47804;SDS011;33568;45.286;9.900;2023-02-01T13:49:47;27.83;;;19.65;;
47804;SDS011;33568;45.286;9.900;2023-02-01T13:52:31;36.72;;;21.48;;
47804;SDS011;33568;45.286;9.900;2023-02-01T13:57:45;26.95;;;19.55;;
47804;SDS011;33568;45.286;9.900;2023-02-01T14:00:23;29.67;;;18.80;;
47804;SDS011;33568;45.286;9.900;2023-02-01T14:03:02;29.17;;;19.63;;
47804;SDS011;33568;45.286;9.900;2023-02-01T14:13:32;24.77;;;18.00;;
47804;SDS011;33568;45.286;9.900;2023-02-01T14:16:14;36.00;;;19.27;;
47804;SDS011;33568;45.286;9.900;2023-02-01T14:29:00;29.55;;;21.30;;
47804;SDS011;33568;45.286;9.900;2023-02-01T14:37:09;33.42;;;24.65;;
47804;SDS011;33568;45.286;9.900;2023-02-01T14:44:48;26.88;;;15.95;;
47804;SDS011;33568;45.286;9.900;2023-02-01T14:52:40;34.78;;;21.17;;
47804;SDS011;33568;45.286;9.900;2023-02-01T14:55:15;38.83;;;22.75;;
47804;SDS011;33568;45.286;9.900;2023-02-01T14:57:50;27.63;;;14.57;;
47804;SDS011;33568;45.286;9.900;2023-02-01T15:00:25;19.70;;;13.93;;
47804;SDS011;33568;45.286;9.900;2023-02-01T15:03:01;28.30;;;16.90;;
47804;SDS011;33568;45.286;9.900;2023-02-01T15:05:59;17.70;;;11.48;;
47804;SDS011;33568;45.286;9.900;2023-02-01T15:08:35;35.80;;;19.70;;
47804;SDS011;33568;45.286;9.900;2023-02-01T15:11:06;40.50;;;23.13;;
47804;SDS011;33568;45.286;9.900;2023-02-01T15:13:40;29.88;;;14.68;;
47804;SDS011;33568;45.286;9.900;2023-02-01T15:16:16;42.90;;;29.60;;
47804;SDS011;33568;45.286;9.900;2023-02-01T15:18:42;19.58;;;12.38;;
47804;SDS011;33568;45.286;9.900;2023-02-01T15:21:14;18.80;;;7.57;;
47804;SDS011;33568;45.286;9.900;2023-02-01T15:23:51;21.05;;;8.85;;
47804;SDS011;33568;45.286;9.900;2023-02-01T15:26:36;23.60;;;11.38;;
47804;SDS011;33568;45.286;9.900;2023-02-01T15:29:03;22.75;;;12.63;;
47804;SDS011;33568;45.286;9.900;2023-02-01T15:34:03;25.30;;;13.20;;
47804;SDS011;33568;45.286;9.900;2023-02-01T15:36:31;13.20;;;6.32;;
47804;SDS011;33568;45.286;9.900;2023-02-01T15:39:16;20.27;;;10.07;;
47804;SDS011;33568;45.286;9.900;2023-02-01T15:41:55;14.70;;;8.30;;
47804;SDS011;33568;45.286;9.900;2023-02-01T15:44:40;15.98;;;10.60;;
47804;SDS011;33568;45.286;9.900;2023-02-01T15:47:29;30.15;;;14.32;;
47804;SDS011;33568;45.286;9.900;2023-02-01T15:49:57;29.80;;;21.60;;
47804;SDS011;33568;45.286;9.900;2023-02-01T15:55:01;27.02;;;20.25;;
47804;SDS011;33568;45.286;9.900;2023-02-01T15:57:35;31.88;;;21.63;;
47804;SDS011;33568;45.286;9.900;2023-02-01T16:00:07;31.20;;;21.58;;
47804;SDS011;33568;45.286;9.900;2023-02-01T16:02:54;38.15;;;22.25;;
47804;SDS011;33568;45.286;9.900;2023-02-01T16:05:28;26.33;;;18.27;;
47804;SDS011;33568;45.286;9.900;2023-02-01T16:08:00;26.85;;;16.60;;
47804;SDS011;33568;45.286;9.900;2023-02-01T16:10:31;24.88;;;15.23;;
47804;SDS011;33568;45.286;9.900;2023-02-01T16:13:03;27.00;;;16.95;;
47804;SDS011;33568;45.286;9.900;2023-02-01T16:15:29;28.23;;;17.20;;
47804;SDS011;33568;45.286;9.900;2023-02-01T16:17:56;33.85;;;26.67;;
47804;SDS011;33568;45.286;9.900;2023-02-01T16:22:49;63.10;;;40.83;;
47804;SDS011;33568;45.286;9.900;2023-02-01T16:25:16;57.70;;;41.58;;
47804;SDS011;33568;45.286;9.900;2023-02-01T16:27:42;31.95;;;20.00;;
47804;SDS011;33568;45.286;9.900;2023-02-01T16:32:35;34.22;;;18.00;;
47804;SDS011;33568;45.286;9.900;2023-02-01T16:35:04;23.17;;;14.52;;
47804;SDS011;33568;45.286;9.900;2023-02-01T16:37:38;37.33;;;20.85;;
47804;SDS011;33568;45.286;9.900;2023-02-01T16:40:04;17.40;;;10.35;;
47804;SDS011;33568;45.286;9.900;2023-02-01T16:42:31;23.98;;;13.25;;
47804;SDS011;33568;45.286;9.900;2023-02-01T16:44:57;26.40;;;14.68;;
47804;SDS011;33568;45.286;9.900;2023-02-01T16:47:23;29.95;;;12.65;;
47804;SDS011;33568;45.286;9.900;2023-02-01T16:49:50;25.08;;;13.60;;
47804;SDS011;33568;45.286;9.900;2023-02-01T16:52:18;25.65;;;16.63;;
47804;SDS011;33568;45.286;9.900;2023-02-01T16:54:47;35.28;;;17.48;;
47804;SDS011;33568;45.286;9.900;2023-02-01T16:57:15;29.08;;;18.48;;
47804;SDS011;33568;45.286;9.900;2023-02-01T16:59:43;50.20;;;24.50;;
47804;SDS011;33568;45.286;9.900;2023-02-01T17:02:11;39.35;;;25.23;;
47804;SDS011;33568;45.286;9.900;2023-02-01T17:04:38;32.53;;;23.98;;
47804;SDS011;33568;45.286;9.900;2023-02-01T17:07:05;34.28;;;22.33;;
47804;SDS011;33568;45.286;9.900;2023-02-01T17:09:35;53.83;;;25.52;;
47804;SDS011;33568;45.286;9.900;2023-02-01T17:12:03;55.85;;;28.75;;
47804;SDS011;33568;45.286;9.900;2023-02-01T17:14:31;50.25;;;36.35;;
47804;SDS011;33568;45.286;9.900;2023-02-01T17:17:01;51.33;;;37.08;;
47804;SDS011;33568;45.286;9.900;2023-02-01T17:21:55;51.55;;;34.72;;
47804;SDS011;33568;45.286;9.900;2023-02-01T17:24:25;47.15;;;34.17;;
47804;SDS011;33568;45.286;9.900;2023-02-01T17:26:54;66.22;;;44.28;;
47804;SDS011;33568;45.286;9.900;2023-02-01T17:29:20;49.97;;;34.90;;
47804;SDS011;33568;45.286;9.900;2023-02-01T17:31:49;66.90;;;43.33;;
47804;SDS011;33568;45.286;9.900;2023-02-01T17:34:17;65.03;;;42.03;;
47804;SDS011;33568;45.286;9.900;2023-02-01T17:36:44;71.80;;;47.25;;
47804;SDS011;33568;45.286;9.900;2023-02-01T17:39:11;56.60;;;35.20;;
47804;SDS011;33568;45.286;9.900;2023-02-01T17:42:01;42.17;;;26.38;;
47804;SDS011;33568;45.286;9.900;2023-02-01T17:44:30;31.75;;;23.58;;
47804;SDS011;33568;45.286;9.900;2023-02-01T17:49:24;33.43;;;22.23;;
47804;SDS011;33568;45.286;9.900;2023-02-01T17:51:54;31.65;;;22.50;;
47804;SDS011;33568;45.286;9.900;2023-02-01T17:54:21;36.90;;;22.00;;
47804;SDS011;33568;45.286;9.900;2023-02-01T17:59:14;37.53;;;22.65;;
47804;SDS011;33568;45.286;9.900;2023-02-01T18:01:42;30.90;;;22.13;;
47804;SDS011;33568;45.286;9.900;2023-02-01T18:04:10;38.90;;;22.50;;
47804;SDS011;33568;45.286;9.900;2023-02-01T18:06:41;38.10;;;22.27;;
47804;SDS011;33568;45.286;9.900;2023-02-01T18:09:08;95.20;;;59.47;;
47804;SDS011;33568;45.286;9.900;2023-02-01T18:14:01;54.38;;;36.20;;
47804;SDS011;33568;45.286;9.900;2023-02-01T18:16:29;48.08;;;33.97;;
47804;SDS011;33568;45.286;9.900;2023-02-01T18:18:57;52.20;;;34.75;;
47804;SDS011;33568;45.286;9.900;2023-02-01T18:21:36;47.55;;;33.03;;
47804;SDS011;33568;45.286;9.900;2023-02-01T18:24:06;46.97;;;31.10;;
47804;SDS011;33568;45.286;9.900;2023-02-01T18:26:35;44.63;;;29.40;;
47804;SDS011;33568;45.286;9.900;2023-02-01T18:29:01;43.38;;;26.15;;
47804;SDS011;33568;45.286;9.900;2023-02-01T18:31:29;45.42;;;28.98;;
47804;SDS011;33568;45.286;9.900;2023-02-01T18:33:57;35.20;;;25.10;;
47804;SDS011;33568;45.286;9.900;2023-02-01T18:36:25;27.90;;;18.70;;
47804;SDS011;33568;45.286;9.900;2023-02-01T18:38:52;29.98;;;16.73;;
47804;SDS011;33568;45.286;9.900;2023-02-01T18:41:21;22.45;;;11.43;;
47804;SDS011;33568;45.286;9.900;2023-02-01T18:43:48;24.15;;;11.10;;
47804;SDS011;33568;45.286;9.900;2023-02-01T18:46:16;25.58;;;14.98;;
47804;SDS011;33568;45.286;9.900;2023-02-01T18:48:43;25.52;;;12.88;;